Terminal Aerodrome Forecast
Issued by NWS

Home | Current Version | Previous Version | Text Only | Print | Product List | Glossary On
Versions: 1 2 3 4 5 6 7 8 9 10 11 12 13 14
000
FTAK31 PAJN 232300
TAFAPG
TAF
PAPG 232326Z 2400/2424 05004KT P6SM FEW015 SCT200
     FM240500 00000KT P6SM SCT100
     FM241200 00000KT P6SM VCFG FEW005 BKN100
     FM241800 05004KT P6SM VCSH FEW008 SCT050 OVC070
      AMD LTD TO CLD VIS AND WIND 2406/2415=

USA.gov is the U.S. government's official web portal to all federal, state and local government web resources and services.